Terminal Aerodrome Forecast
Issued by NWS

Home | Current Version | Previous Version | Text Only | Print | Product List | Glossary On
Versions: 1 2 3 4 5 6 7 8 9 10 11 12 13 14 15 16 17 18 19 20
000
FTUS41 KILN 231700 RRA
TAFLCK
TAF
KLCK 231749Z 2318/2418 14012KT P6SM SCT035 BKN060
     FM232100 12010G18KT P6SM VCSH BKN040
     FM240000 13012G18KT 4SM -SHRA BR OVC025
     FM240300 16014G20KT 5SM -SHRA BR OVC012
     FM240500 18014G22KT P6SM VCSH OVC015
     FM241000 19014G24KT P6SM BKN022
     FM241500 20018G34KT P6SM -SHRA FEW010 BKN025=

USA.gov is the U.S. government's official web portal to all federal, state and local government web resources and services.